sensor_id;sensor_type;location;lat;lon;timestamp;P1;durP1;ratioP1;P2;durP2;ratioP2
42614;SDS011;28754;47.700;7.924;2023-06-22T00:00:25;13.63;;;4.97;;
42614;SDS011;28754;47.700;7.924;2023-06-22T00:03:12;9.90;;;4.05;;
42614;SDS011;28754;47.700;7.924;2023-06-22T00:05:59;7.95;;;3.55;;
42614;SDS011;28754;47.700;7.924;2023-06-22T00:08:45;11.77;;;3.38;;
42614;SDS011;28754;47.700;7.924;2023-06-22T00:11:33;11.13;;;3.88;;
42614;SDS011;28754;47.700;7.924;2023-06-22T00:14:19;8.13;;;4.15;;
42614;SDS011;28754;47.700;7.924;2023-06-22T00:17:06;13.35;;;5.75;;
42614;SDS011;28754;47.700;7.924;2023-06-22T00:19:53;9.50;;;3.35;;
42614;SDS011;28754;47.700;7.924;2023-06-22T00:22:41;5.97;;;3.72;;
42614;SDS011;28754;47.700;7.924;2023-06-22T00:25:28;15.85;;;4.10;;
42614;SDS011;28754;47.700;7.924;2023-06-22T00:28:15;8.48;;;3.90;;
42614;SDS011;28754;47.700;7.924;2023-06-22T00:31:02;7.82;;;3.97;;
42614;SDS011;28754;47.700;7.924;2023-06-22T00:33:48;6.55;;;3.42;;
42614;SDS011;28754;47.700;7.924;2023-06-22T00:36:36;7.07;;;3.60;;
42614;SDS011;28754;47.700;7.924;2023-06-22T00:39:24;5.35;;;3.00;;
42614;SDS011;28754;47.700;7.924;2023-06-22T00:42:15;13.93;;;3.63;;
42614;SDS011;28754;47.700;7.924;2023-06-22T00:45:02;9.00;;;3.72;;
42614;SDS011;28754;47.700;7.924;2023-06-22T00:47:52;13.55;;;3.20;;
42614;SDS011;28754;47.700;7.924;2023-06-22T00:50:42;12.38;;;5.28;;
42614;SDS011;28754;47.700;7.924;2023-06-22T00:53:29;18.10;;;5.75;;
42614;SDS011;28754;47.700;7.924;2023-06-22T00:56:20;9.27;;;3.63;;
42614;SDS011;28754;47.700;7.924;2023-06-22T00:59:10;12.73;;;3.45;;
42614;SDS011;28754;47.700;7.924;2023-06-22T01:01:58;8.32;;;4.20;;
42614;SDS011;28754;47.700;7.924;2023-06-22T01:04:46;6.82;;;3.22;;
42614;SDS011;28754;47.700;7.924;2023-06-22T01:07:35;14.65;;;3.65;;
42614;SDS011;28754;47.700;7.924;2023-06-22T01:10:31;11.55;;;3.85;;
42614;SDS011;28754;47.700;7.924;2023-06-22T01:16:24;9.00;;;3.05;;
42614;SDS011;28754;47.700;7.924;2023-06-22T01:22:38;8.70;;;2.83;;
42614;SDS011;28754;47.700;7.924;2023-06-22T01:29:06;6.63;;;2.83;;
42614;SDS011;28754;47.700;7.924;2023-06-22T01:31:59;6.80;;;3.75;;
42614;SDS011;28754;47.700;7.924;2023-06-22T01:34:49;6.80;;;3.38;;
42614;SDS011;28754;47.700;7.924;2023-06-22T01:37:37;14.52;;;3.45;;
42614;SDS011;28754;47.700;7.924;2023-06-22T01:40:24;11.05;;;3.90;;
42614;SDS011;28754;47.700;7.924;2023-06-22T01:43:12;6.50;;;3.60;;
42614;SDS011;28754;47.700;7.924;2023-06-22T01:46:00;8.85;;;4.22;;
42614;SDS011;28754;47.700;7.924;2023-06-22T01:48:48;8.30;;;2.95;;
42614;SDS011;28754;47.700;7.924;2023-06-22T01:51:36;10.38;;;4.28;;
42614;SDS011;28754;47.700;7.924;2023-06-22T01:54:22;9.30;;;3.75;;
42614;SDS011;28754;47.700;7.924;2023-06-22T01:57:09;7.80;;;3.88;;
42614;SDS011;28754;47.700;7.924;2023-06-22T02:00:00;13.10;;;3.58;;
42614;SDS011;28754;47.700;7.924;2023-06-22T02:06:14;8.57;;;3.22;;
42614;SDS011;28754;47.700;7.924;2023-06-22T02:09:09;7.00;;;3.38;;
42614;SDS011;28754;47.700;7.924;2023-06-22T02:12:02;13.13;;;3.75;;
42614;SDS011;28754;47.700;7.924;2023-06-22T02:14:52;6.25;;;2.97;;
42614;SDS011;28754;47.700;7.924;2023-06-22T02:17:40;10.52;;;3.55;;
42614;SDS011;28754;47.700;7.924;2023-06-22T02:20:31;9.88;;;3.67;;
42614;SDS011;28754;47.700;7.924;2023-06-22T02:23:17;12.15;;;3.75;;
42614;SDS011;28754;47.700;7.924;2023-06-22T02:26:04;12.38;;;3.10;;
42614;SDS011;28754;47.700;7.924;2023-06-22T02:28:51;9.57;;;3.80;;
42614;SDS011;28754;47.700;7.924;2023-06-22T02:31:38;13.90;;;4.28;;
42614;SDS011;28754;47.700;7.924;2023-06-22T02:34:25;11.45;;;3.67;;
42614;SDS011;28754;47.700;7.924;2023-06-22T02:37:11;8.38;;;3.13;;
42614;SDS011;28754;47.700;7.924;2023-06-22T02:39:59;14.63;;;3.72;;
42614;SDS011;28754;47.700;7.924;2023-06-22T02:42:46;9.73;;;3.60;;
42614;SDS011;28754;47.700;7.924;2023-06-22T02:45:35;9.20;;;3.55;;
42614;SDS011;28754;47.700;7.924;2023-06-22T02:48:21;8.00;;;3.42;;
42614;SDS011;28754;47.700;7.924;2023-06-22T02:51:08;10.70;;;4.18;;
42614;SDS011;28754;47.700;7.924;2023-06-22T02:53:57;9.20;;;3.85;;
42614;SDS011;28754;47.700;7.924;2023-06-22T02:56:45;6.78;;;3.38;;
42614;SDS011;28754;47.700;7.924;2023-06-22T02:59:32;9.73;;;3.50;;
42614;SDS011;28754;47.700;7.924;2023-06-22T03:02:25;13.38;;;4.85;;
42614;SDS011;28754;47.700;7.924;2023-06-22T03:05:13;6.63;;;3.22;;
42614;SDS011;28754;47.700;7.924;2023-06-22T03:08:03;6.97;;;3.38;;
42614;SDS011;28754;47.700;7.924;2023-06-22T03:10:53;7.13;;;3.28;;
42614;SDS011;28754;47.700;7.924;2023-06-22T03:13:40;13.07;;;4.00;;
42614;SDS011;28754;47.700;7.924;2023-06-22T03:16:27;7.75;;;3.35;;
42614;SDS011;28754;47.700;7.924;2023-06-22T03:19:15;11.73;;;4.18;;
42614;SDS011;28754;47.700;7.924;2023-06-22T03:22:02;9.95;;;3.85;;
42614;SDS011;28754;47.700;7.924;2023-06-22T03:24:50;10.70;;;3.83;;
42614;SDS011;28754;47.700;7.924;2023-06-22T03:27:37;15.65;;;3.80;;
42614;SDS011;28754;47.700;7.924;2023-06-22T03:30:23;11.98;;;4.00;;
42614;SDS011;28754;47.700;7.924;2023-06-22T03:33:10;10.73;;;4.68;;
42614;SDS011;28754;47.700;7.924;2023-06-22T03:35:57;11.00;;;3.55;;
42614;SDS011;28754;47.700;7.924;2023-06-22T03:38:43;11.68;;;4.18;;
42614;SDS011;28754;47.700;7.924;2023-06-22T03:41:34;9.25;;;3.60;;
42614;SDS011;28754;47.700;7.924;2023-06-22T03:44:21;11.52;;;3.58;;
42614;SDS011;28754;47.700;7.924;2023-06-22T03:47:08;11.38;;;4.18;;
42614;SDS011;28754;47.700;7.924;2023-06-22T03:49:55;11.75;;;5.30;;
42614;SDS011;28754;47.700;7.924;2023-06-22T03:52:42;11.65;;;3.80;;
42614;SDS011;28754;47.700;7.924;2023-06-22T03:55:29;8.55;;;3.97;;
42614;SDS011;28754;47.700;7.924;2023-06-22T03:58:16;8.75;;;3.38;;
42614;SDS011;28754;47.700;7.924;2023-06-22T04:01:07;10.52;;;3.83;;
42614;SDS011;28754;47.700;7.924;2023-06-22T04:03:57;12.23;;;4.18;;
42614;SDS011;28754;47.700;7.924;2023-06-22T04:06:44;10.18;;;3.45;;
42614;SDS011;28754;47.700;7.924;2023-06-22T04:09:31;10.75;;;3.70;;
42614;SDS011;28754;47.700;7.924;2023-06-22T04:12:18;10.68;;;4.00;;
42614;SDS011;28754;47.700;7.924;2023-06-22T04:15:05;15.23;;;4.07;;
42614;SDS011;28754;47.700;7.924;2023-06-22T04:17:54;13.77;;;3.67;;
42614;SDS011;28754;47.700;7.924;2023-06-22T04:20:42;13.10;;;5.45;;
42614;SDS011;28754;47.700;7.924;2023-06-22T04:23:34;13.43;;;5.13;;
42614;SDS011;28754;47.700;7.924;2023-06-22T04:26:24;10.50;;;3.90;;
42614;SDS011;28754;47.700;7.924;2023-06-22T04:29:11;10.43;;;3.55;;
42614;SDS011;28754;47.700;7.924;2023-06-22T04:31:58;8.75;;;4.10;;
42614;SDS011;28754;47.700;7.924;2023-06-22T04:34:49;11.02;;;3.95;;
42614;SDS011;28754;47.700;7.924;2023-06-22T04:37:35;7.88;;;3.55;;
42614;SDS011;28754;47.700;7.924;2023-06-22T04:40:22;13.60;;;3.83;;
42614;SDS011;28754;47.700;7.924;2023-06-22T04:43:09;11.02;;;3.97;;
42614;SDS011;28754;47.700;7.924;2023-06-22T04:45:57;9.55;;;3.80;;
42614;SDS011;28754;47.700;7.924;2023-06-22T04:48:49;6.32;;;3.13;;
42614;SDS011;28754;47.700;7.924;2023-06-22T04:51:42;11.90;;;4.78;;
42614;SDS011;28754;47.700;7.924;2023-06-22T04:54:29;20.73;;;5.05;;
42614;SDS011;28754;47.700;7.924;2023-06-22T04:57:20;9.38;;;4.07;;
42614;SDS011;28754;47.700;7.924;2023-06-22T05:00:19;13.95;;;4.05;;
42614;SDS011;28754;47.700;7.924;2023-06-22T05:03:09;15.27;;;6.20;;
42614;SDS011;28754;47.700;7.924;2023-06-22T05:06:06;10.73;;;3.83;;
42614;SDS011;28754;47.700;7.924;2023-06-22T05:08:53;13.88;;;5.30;;
42614;SDS011;28754;47.700;7.924;2023-06-22T05:11:43;9.18;;;3.42;;
42614;SDS011;28754;47.700;7.924;2023-06-22T05:14:31;8.13;;;3.90;;
42614;SDS011;28754;47.700;7.924;2023-06-22T05:17:18;7.50;;;3.75;;
42614;SDS011;28754;47.700;7.924;2023-06-22T05:20:05;9.18;;;3.70;;
42614;SDS011;28754;47.700;7.924;2023-06-22T05:22:52;9.48;;;4.30;;
42614;SDS011;28754;47.700;7.924;2023-06-22T05:25:39;9.80;;;3.30;;
42614;SDS011;28754;47.700;7.924;2023-06-22T05:28:26;11.82;;;3.83;;
42614;SDS011;28754;47.700;7.924;2023-06-22T05:31:16;12.63;;;3.90;;
42614;SDS011;28754;47.700;7.924;2023-06-22T05:34:03;10.00;;;4.25;;
42614;SDS011;28754;47.700;7.924;2023-06-22T05:36:49;5.70;;;3.70;;
42614;SDS011;28754;47.700;7.924;2023-06-22T05:39:36;8.48;;;3.65;;
42614;SDS011;28754;47.700;7.924;2023-06-22T05:42:26;9.85;;;4.38;;
42614;SDS011;28754;47.700;7.924;2023-06-22T05:45:12;9.95;;;3.85;;
42614;SDS011;28754;47.700;7.924;2023-06-22T05:48:00;7.65;;;4.72;;
42614;SDS011;28754;47.700;7.924;2023-06-22T05:50:47;12.90;;;5.18;;
42614;SDS011;28754;47.700;7.924;2023-06-22T05:53:34;15.07;;;3.92;;
42614;SDS011;28754;47.700;7.924;2023-06-22T05:56:20;7.80;;;4.40;;
42614;SDS011;28754;47.700;7.924;2023-06-22T05:59:07;13.63;;;4.22;;
42614;SDS011;28754;47.700;7.924;2023-06-22T06:01:54;9.15;;;3.80;;
42614;SDS011;28754;47.700;7.924;2023-06-22T06:04:41;11.30;;;4.32;;
42614;SDS011;28754;47.700;7.924;2023-06-22T06:07:27;9.15;;;4.53;;
42614;SDS011;28754;47.700;7.924;2023-06-22T06:10:14;13.10;;;4.07;;
42614;SDS011;28754;47.700;7.924;2023-06-22T06:13:01;14.90;;;3.90;;
42614;SDS011;28754;47.700;7.924;2023-06-22T06:15:50;10.38;;;3.58;;
42614;SDS011;28754;47.700;7.924;2023-06-22T06:18:37;13.65;;;4.13;;
42614;SDS011;28754;47.700;7.924;2023-06-22T06:21:24;11.10;;;4.78;;
42614;SDS011;28754;47.700;7.924;2023-06-22T06:24:11;6.93;;;4.43;;
42614;SDS011;28754;47.700;7.924;2023-06-22T06:26:58;10.38;;;4.13;;
42614;SDS011;28754;47.700;7.924;2023-06-22T06:29:45;9.93;;;4.28;;
42614;SDS011;28754;47.700;7.924;2023-06-22T06:32:33;11.02;;;3.53;;
42614;SDS011;28754;47.700;7.924;2023-06-22T06:35:20;15.00;;;4.22;;
42614;SDS011;28754;47.700;7.924;2023-06-22T06:38:07;9.70;;;3.85;;
42614;SDS011;28754;47.700;7.924;2023-06-22T06:40:55;8.10;;;3.38;;
42614;SDS011;28754;47.700;7.924;2023-06-22T06:43:42;8.90;;;4.03;;
42614;SDS011;28754;47.700;7.924;2023-06-22T06:46:29;10.82;;;4.47;;
42614;SDS011;28754;47.700;7.924;2023-06-22T06:49:16;8.82;;;4.45;;
42614;SDS011;28754;47.700;7.924;2023-06-22T06:52:02;11.00;;;4.45;;
42614;SDS011;28754;47.700;7.924;2023-06-22T06:54:52;7.60;;;3.47;;
42614;SDS011;28754;47.700;7.924;2023-06-22T06:57:42;9.50;;;4.60;;
42614;SDS011;28754;47.700;7.924;2023-06-22T07:00:30;10.10;;;4.63;;
42614;SDS011;28754;47.700;7.924;2023-06-22T07:03:40;10.95;;;4.63;;
42614;SDS011;28754;47.700;7.924;2023-06-22T07:06:27;8.52;;;5.43;;
42614;SDS011;28754;47.700;7.924;2023-06-22T07:09:18;11.48;;;5.90;;
42614;SDS011;28754;47.700;7.924;2023-06-22T07:12:08;13.27;;;5.07;;
42614;SDS011;28754;47.700;7.924;2023-06-22T07:15:01;16.42;;;5.65;;
42614;SDS011;28754;47.700;7.924;2023-06-22T07:17:57;10.73;;;5.50;;
42614;SDS011;28754;47.700;7.924;2023-06-22T07:20:44;9.35;;;5.65;;
42614;SDS011;28754;47.700;7.924;2023-06-22T07:23:33;16.60;;;5.35;;
42614;SDS011;28754;47.700;7.924;2023-06-22T07:26:21;8.75;;;5.43;;
42614;SDS011;28754;47.700;7.924;2023-06-22T07:29:19;10.73;;;4.68;;
42614;SDS011;28754;47.700;7.924;2023-06-22T07:32:07;10.63;;;4.72;;
42614;SDS011;28754;47.700;7.924;2023-06-22T07:34:54;15.60;;;5.70;;
42614;SDS011;28754;47.700;7.924;2023-06-22T07:37:41;10.02;;;4.93;;
42614;SDS011;28754;47.700;7.924;2023-06-22T07:40:28;11.88;;;4.28;;
42614;SDS011;28754;47.700;7.924;2023-06-22T07:43:15;10.52;;;4.95;;
42614;SDS011;28754;47.700;7.924;2023-06-22T07:46:05;10.82;;;5.88;;
42614;SDS011;28754;47.700;7.924;2023-06-22T07:48:52;10.43;;;4.60;;
42614;SDS011;28754;47.700;7.924;2023-06-22T07:51:39;10.43;;;4.93;;
42614;SDS011;28754;47.700;7.924;2023-06-22T07:54:25;9.18;;;4.85;;
42614;SDS011;28754;47.700;7.924;2023-06-22T07:57:12;6.57;;;4.32;;
42614;SDS011;28754;47.700;7.924;2023-06-22T08:00:00;9.38;;;4.05;;
42614;SDS011;28754;47.700;7.924;2023-06-22T08:02:47;10.05;;;5.20;;
42614;SDS011;28754;47.700;7.924;2023-06-22T08:05:33;11.27;;;4.30;;
42614;SDS011;28754;47.700;7.924;2023-06-22T08:08:20;8.00;;;4.15;;
42614;SDS011;28754;47.700;7.924;2023-06-22T08:11:07;12.07;;;4.18;;
42614;SDS011;28754;47.700;7.924;2023-06-22T08:13:54;10.10;;;4.50;;
42614;SDS011;28754;47.700;7.924;2023-06-22T08:16:43;16.23;;;5.28;;
42614;SDS011;28754;47.700;7.924;2023-06-22T08:19:30;6.00;;;3.97;;
42614;SDS011;28754;47.700;7.924;2023-06-22T08:22:17;12.23;;;4.05;;
42614;SDS011;28754;47.700;7.924;2023-06-22T08:25:04;10.48;;;4.32;;
42614;SDS011;28754;47.700;7.924;2023-06-22T08:27:52;8.82;;;4.38;;
42614;SDS011;28754;47.700;7.924;2023-06-22T08:30:39;10.02;;;4.57;;
42614;SDS011;28754;47.700;7.924;2023-06-22T08:33:25;5.25;;;3.20;;
42614;SDS011;28754;47.700;7.924;2023-06-22T08:36:14;12.07;;;3.50;;
42614;SDS011;28754;47.700;7.924;2023-06-22T08:39:05;10.45;;;3.47;;
42614;SDS011;28754;47.700;7.924;2023-06-22T08:41:52;9.48;;;3.60;;
42614;SDS011;28754;47.700;7.924;2023-06-22T08:44:38;16.70;;;3.08;;
42614;SDS011;28754;47.700;7.924;2023-06-22T08:47:27;10.55;;;3.60;;
42614;SDS011;28754;47.700;7.924;2023-06-22T08:50:14;14.98;;;3.45;;
42614;SDS011;28754;47.700;7.924;2023-06-22T08:53:01;7.65;;;3.25;;
42614;SDS011;28754;47.700;7.924;2023-06-22T08:55:48;6.85;;;2.97;;
42614;SDS011;28754;47.700;7.924;2023-06-22T08:58:36;15.20;;;3.28;;
42614;SDS011;28754;47.700;7.924;2023-06-22T09:01:23;13.85;;;3.70;;
42614;SDS011;28754;47.700;7.924;2023-06-22T09:04:10;9.25;;;3.25;;
42614;SDS011;28754;47.700;7.924;2023-06-22T09:06:57;7.55;;;3.38;;
42614;SDS011;28754;47.700;7.924;2023-06-22T09:09:45;12.18;;;4.38;;
42614;SDS011;28754;47.700;7.924;2023-06-22T09:12:32;11.23;;;3.42;;
42614;SDS011;28754;47.700;7.924;2023-06-22T09:15:19;18.60;;;3.33;;
42614;SDS011;28754;47.700;7.924;2023-06-22T09:21:00;14.07;;;3.15;;
42614;SDS011;28754;47.700;7.924;2023-06-22T09:23:50;11.63;;;3.08;;
42614;SDS011;28754;47.700;7.924;2023-06-22T09:26:41;9.07;;;3.65;;
42614;SDS011;28754;47.700;7.924;2023-06-22T09:29:28;13.93;;;2.58;;
42614;SDS011;28754;47.700;7.924;2023-06-22T09:32:20;13.05;;;3.88;;
42614;SDS011;28754;47.700;7.924;2023-06-22T09:35:07;11.05;;;3.88;;
42614;SDS011;28754;47.700;7.924;2023-06-22T09:37:55;13.85;;;4.05;;
42614;SDS011;28754;47.700;7.924;2023-06-22T09:40:42;9.23;;;3.83;;
42614;SDS011;28754;47.700;7.924;2023-06-22T09:43:31;6.15;;;3.13;;
42614;SDS011;28754;47.700;7.924;2023-06-22T09:46:42;8.18;;;3.92;;
42614;SDS011;28754;47.700;7.924;2023-06-22T09:49:30;11.13;;;3.65;;
42614;SDS011;28754;47.700;7.924;2023-06-22T09:52:21;12.27;;;5.47;;
42614;SDS011;28754;47.700;7.924;2023-06-22T09:55:08;10.43;;;4.32;;
42614;SDS011;28754;47.700;7.924;2023-06-22T09:57:55;12.35;;;4.50;;
42614;SDS011;28754;47.700;7.924;2023-06-22T10:00:42;12.27;;;3.67;;
42614;SDS011;28754;47.700;7.924;2023-06-22T10:03:29;6.68;;;3.50;;
42614;SDS011;28754;47.700;7.924;2023-06-22T10:06:16;11.13;;;4.00;;
42614;SDS011;28754;47.700;7.924;2023-06-22T10:09:03;11.63;;;4.03;;
42614;SDS011;28754;47.700;7.924;2023-06-22T10:11:51;15.13;;;4.95;;
42614;SDS011;28754;47.700;7.924;2023-06-22T10:14:37;11.02;;;4.38;;
42614;SDS011;28754;47.700;7.924;2023-06-22T10:17:29;11.60;;;3.67;;
42614;SDS011;28754;47.700;7.924;2023-06-22T10:20:23;9.43;;;3.78;;
42614;SDS011;28754;47.700;7.924;2023-06-22T10:23:25;11.98;;;4.22;;
42614;SDS011;28754;47.700;7.924;2023-06-22T10:26:18;12.02;;;4.03;;
42614;SDS011;28754;47.700;7.924;2023-06-22T10:29:12;5.13;;;3.08;;
42614;SDS011;28754;47.700;7.924;2023-06-22T10:32:17;9.40;;;3.83;;
42614;SDS011;28754;47.700;7.924;2023-06-22T10:35:53;11.55;;;4.75;;
42614;SDS011;28754;47.700;7.924;2023-06-22T10:40:38;11.57;;;4.47;;
42614;SDS011;28754;47.700;7.924;2023-06-22T10:43:25;12.57;;;4.18;;
42614;SDS011;28754;47.700;7.924;2023-06-22T10:46:12;10.77;;;4.75;;
42614;SDS011;28754;47.700;7.924;2023-06-22T10:48:59;8.98;;;4.05;;
42614;SDS011;28754;47.700;7.924;2023-06-22T10:51:45;12.43;;;4.70;;
42614;SDS011;28754;47.700;7.924;2023-06-22T10:54:32;12.27;;;3.50;;
42614;SDS011;28754;47.700;7.924;2023-06-22T10:57:21;9.02;;;3.60;;
42614;SDS011;28754;47.700;7.924;2023-06-22T11:00:08;12.05;;;4.80;;
42614;SDS011;28754;47.700;7.924;2023-06-22T11:02:57;9.05;;;3.72;;
42614;SDS011;28754;47.700;7.924;2023-06-22T11:05:45;14.63;;;4.68;;
42614;SDS011;28754;47.700;7.924;2023-06-22T11:08:34;11.27;;;4.75;;
42614;SDS011;28754;47.700;7.924;2023-06-22T11:11:21;8.38;;;3.83;;
42614;SDS011;28754;47.700;7.924;2023-06-22T11:14:13;11.77;;;4.07;;
42614;SDS011;28754;47.700;7.924;2023-06-22T11:17:00;11.18;;;3.97;;
42614;SDS011;28754;47.700;7.924;2023-06-22T11:19:47;16.30;;;5.07;;
42614;SDS011;28754;47.700;7.924;2023-06-22T11:22:34;9.57;;;3.95;;
42614;SDS011;28754;47.700;7.924;2023-06-22T11:25:21;11.80;;;4.35;;
42614;SDS011;28754;47.700;7.924;2023-06-22T11:28:08;13.00;;;4.55;;
42614;SDS011;28754;47.700;7.924;2023-06-22T11:30:54;7.47;;;3.35;;
42614;SDS011;28754;47.700;7.924;2023-06-22T11:33:41;15.07;;;3.10;;
42614;SDS011;28754;47.700;7.924;2023-06-22T11:36:28;15.60;;;4.18;;
42614;SDS011;28754;47.700;7.924;2023-06-22T11:39:18;9.63;;;3.60;;
42614;SDS011;28754;47.700;7.924;2023-06-22T11:42:06;16.60;;;3.95;;
42614;SDS011;28754;47.700;7.924;2023-06-22T11:44:55;14.18;;;3.70;;
42614;SDS011;28754;47.700;7.924;2023-06-22T11:47:42;14.48;;;4.85;;
42614;SDS011;28754;47.700;7.924;2023-06-22T11:50:29;24.17;;;6.18;;
42614;SDS011;28754;47.700;7.924;2023-06-22T11:53:20;14.20;;;3.72;;
42614;SDS011;28754;47.700;7.924;2023-06-22T11:56:16;8.52;;;3.08;;
42614;SDS011;28754;47.700;7.924;2023-06-22T11:59:03;17.13;;;3.80;;
42614;SDS011;28754;47.700;7.924;2023-06-22T12:01:49;9.48;;;3.53;;
42614;SDS011;28754;47.700;7.924;2023-06-22T12:04:37;8.23;;;4.15;;
42614;SDS011;28754;47.700;7.924;2023-06-22T12:07:23;12.93;;;4.03;;
42614;SDS011;28754;47.700;7.924;2023-06-22T12:10:10;7.13;;;3.05;;
42614;SDS011;28754;47.700;7.924;2023-06-22T12:12:57;8.63;;;3.17;;
42614;SDS011;28754;47.700;7.924;2023-06-22T12:15:46;10.23;;;4.15;;
42614;SDS011;28754;47.700;7.924;2023-06-22T12:18:33;10.05;;;3.35;;
42614;SDS011;28754;47.700;7.924;2023-06-22T12:21:20;8.73;;;3.15;;
42614;SDS011;28754;47.700;7.924;2023-06-22T12:24:07;17.55;;;4.13;;
42614;SDS011;28754;47.700;7.924;2023-06-22T12:26:53;8.27;;;3.85;;
42614;SDS011;28754;47.700;7.924;2023-06-22T12:29:40;7.97;;;3.13;;
42614;SDS011;28754;47.700;7.924;2023-06-22T12:32:27;9.88;;;3.58;;
42614;SDS011;28754;47.700;7.924;2023-06-22T12:35:14;11.75;;;4.07;;
42614;SDS011;28754;47.700;7.924;2023-06-22T12:38:01;12.45;;;4.38;;
42614;SDS011;28754;47.700;7.924;2023-06-22T12:41:09;9.52;;;3.83;;
42614;SDS011;28754;47.700;7.924;2023-06-22T12:43:56;9.38;;;4.00;;
42614;SDS011;28754;47.700;7.924;2023-06-22T12:46:48;8.40;;;4.00;;
42614;SDS011;28754;47.700;7.924;2023-06-22T12:49:35;7.53;;;3.40;;
42614;SDS011;28754;47.700;7.924;2023-06-22T12:52:23;15.60;;;3.20;;
42614;SDS011;28754;47.700;7.924;2023-06-22T12:55:12;9.98;;;4.07;;
42614;SDS011;28754;47.700;7.924;2023-06-22T12:57:59;12.20;;;4.47;;
42614;SDS011;28754;47.700;7.924;2023-06-22T13:00:46;11.65;;;5.10;;
42614;SDS011;28754;47.700;7.924;2023-06-22T13:03:33;7.38;;;3.42;;
42614;SDS011;28754;47.700;7.924;2023-06-22T13:06:20;10.55;;;4.32;;
42614;SDS011;28754;47.700;7.924;2023-06-22T13:09:06;11.88;;;4.20;;
42614;SDS011;28754;47.700;7.924;2023-06-22T13:11:55;13.52;;;5.05;;
42614;SDS011;28754;47.700;7.924;2023-06-22T13:14:42;18.23;;;5.95;;
42614;SDS011;28754;47.700;7.924;2023-06-22T13:17:29;8.55;;;3.88;;
42614;SDS011;28754;47.700;7.924;2023-06-22T13:20:19;11.05;;;4.82;;
42614;SDS011;28754;47.700;7.924;2023-06-22T13:23:06;12.43;;;6.00;;
42614;SDS011;28754;47.700;7.924;2023-06-22T13:25:52;18.00;;;6.97;;
42614;SDS011;28754;47.700;7.924;2023-06-22T13:28:39;9.48;;;5.90;;
42614;SDS011;28754;47.700;7.924;2023-06-22T13:31:26;10.30;;;5.85;;
42614;SDS011;28754;47.700;7.924;2023-06-22T13:34:13;12.02;;;5.72;;
42614;SDS011;28754;47.700;7.924;2023-06-22T13:37:00;15.40;;;6.60;;
42614;SDS011;28754;47.700;7.924;2023-06-22T13:39:47;7.97;;;4.90;;
42614;SDS011;28754;47.700;7.924;2023-06-22T13:42:35;14.13;;;5.90;;
42614;SDS011;28754;47.700;7.924;2023-06-22T13:45:22;15.68;;;6.95;;
42614;SDS011;28754;47.700;7.924;2023-06-22T13:48:10;16.20;;;6.80;;
42614;SDS011;28754;47.700;7.924;2023-06-22T13:50:57;9.00;;;5.57;;
42614;SDS011;28754;47.700;7.924;2023-06-22T13:53:44;9.68;;;5.30;;
42614;SDS011;28754;47.700;7.924;2023-06-22T13:56:30;13.10;;;6.18;;
42614;SDS011;28754;47.700;7.924;2023-06-22T13:59:18;13.35;;;6.10;;
42614;SDS011;28754;47.700;7.924;2023-06-22T14:02:06;9.23;;;5.90;;
42614;SDS011;28754;47.700;7.924;2023-06-22T14:04:56;11.95;;;6.38;;
42614;SDS011;28754;47.700;7.924;2023-06-22T14:08:11;11.68;;;6.32;;
42614;SDS011;28754;47.700;7.924;2023-06-22T14:11:10;14.95;;;7.10;;
42614;SDS011;28754;47.700;7.924;2023-06-22T14:33:08;8.77;;;5.65;;
42614;SDS011;28754;47.700;7.924;2023-06-22T14:35:55;12.88;;;4.65;;
42614;SDS011;28754;47.700;7.924;2023-06-22T14:38:45;11.55;;;4.75;;
42614;SDS011;28754;47.700;7.924;2023-06-22T14:41:32;9.73;;;5.03;;
42614;SDS011;28754;47.700;7.924;2023-06-22T14:44:21;13.10;;;4.78;;
42614;SDS011;28754;47.700;7.924;2023-06-22T14:47:08;10.43;;;4.50;;
42614;SDS011;28754;47.700;7.924;2023-06-22T14:49:55;11.73;;;4.75;;
42614;SDS011;28754;47.700;7.924;2023-06-22T15:15:18;10.18;;;3.60;;
42614;SDS011;28754;47.700;7.924;2023-06-22T15:18:20;8.68;;;4.90;;
42614;SDS011;28754;47.700;7.924;2023-06-22T15:22:12;6.55;;;3.40;;
42614;SDS011;28754;47.700;7.924;2023-06-22T15:25:06;5.93;;;3.83;;
42614;SDS011;28754;47.700;7.924;2023-06-22T16:26:21;7.88;;;3.42;;
42614;SDS011;28754;47.700;7.924;2023-06-22T16:29:38;6.57;;;3.08;;
42614;SDS011;28754;47.700;7.924;2023-06-22T16:37:22;7.13;;;3.40;;
42614;SDS011;28754;47.700;7.924;2023-06-22T16:45:22;6.15;;;3.08;;
42614;SDS011;28754;47.700;7.924;2023-06-22T16:48:22;10.07;;;3.05;;
42614;SDS011;28754;47.700;7.924;2023-06-22T16:51:12;7.22;;;2.55;;
42614;SDS011;28754;47.700;7.924;2023-06-22T16:54:01;6.25;;;3.05;;
42614;SDS011;28754;47.700;7.924;2023-06-22T16:57:20;8.52;;;2.38;;
42614;SDS011;28754;47.700;7.924;2023-06-22T17:00:20;8.43;;;3.10;;
42614;SDS011;28754;47.700;7.924;2023-06-22T18:04:28;1.67;;;0.85;;
42614;SDS011;28754;47.700;7.924;2023-06-22T18:07:18;2.50;;;0.80;;
42614;SDS011;28754;47.700;7.924;2023-06-22T18:10:09;6.22;;;1.48;;
42614;SDS011;28754;47.700;7.924;2023-06-22T18:12:56;4.00;;;2.38;;
42614;SDS011;28754;47.700;7.924;2023-06-22T18:15:44;3.22;;;1.63;;
42614;SDS011;28754;47.700;7.924;2023-06-22T18:18:32;3.88;;;2.03;;
42614;SDS011;28754;47.700;7.924;2023-06-22T18:21:21;3.60;;;1.63;;
42614;SDS011;28754;47.700;7.924;2023-06-22T18:24:07;4.18;;;2.25;;
42614;SDS011;28754;47.700;7.924;2023-06-22T18:26:55;6.13;;;2.22;;
42614;SDS011;28754;47.700;7.924;2023-06-22T18:29:49;4.97;;;2.20;;
42614;SDS011;28754;47.700;7.924;2023-06-22T18:32:37;3.47;;;2.08;;
42614;SDS011;28754;47.700;7.924;2023-06-22T18:35:27;4.32;;;1.90;;
42614;SDS011;28754;47.700;7.924;2023-06-22T18:38:15;4.57;;;2.45;;
42614;SDS011;28754;47.700;7.924;2023-06-22T18:41:02;4.00;;;2.20;;
42614;SDS011;28754;47.700;7.924;2023-06-22T18:43:52;5.72;;;2.30;;
42614;SDS011;28754;47.700;7.924;2023-06-22T18:46:39;3.83;;;1.70;;
42614;SDS011;28754;47.700;7.924;2023-06-22T18:49:30;5.82;;;1.80;;
42614;SDS011;28754;47.700;7.924;2023-06-22T18:52:24;4.45;;;2.10;;
42614;SDS011;28754;47.700;7.924;2023-06-22T18:55:12;4.45;;;2.10;;
42614;SDS011;28754;47.700;7.924;2023-06-22T18:58:12;3.08;;;1.33;;
42614;SDS011;28754;47.700;7.924;2023-06-22T19:01:16;3.90;;;1.33;;
42614;SDS011;28754;47.700;7.924;2023-06-22T19:04:14;2.15;;;1.02;;
42614;SDS011;28754;47.700;7.924;2023-06-22T19:07:03;1.80;;;0.90;;
42614;SDS011;28754;47.700;7.924;2023-06-22T19:10:20;2.85;;;1.30;;
42614;SDS011;28754;47.700;7.924;2023-06-22T19:16:09;2.30;;;1.45;;
42614;SDS011;28754;47.700;7.924;2023-06-22T19:18:59;3.47;;;1.50;;
42614;SDS011;28754;47.700;7.924;2023-06-22T19:21:59;4.32;;;1.30;;
42614;SDS011;28754;47.700;7.924;2023-06-22T19:24:49;3.22;;;1.20;;
42614;SDS011;28754;47.700;7.924;2023-06-22T19:27:37;3.55;;;1.10;;
42614;SDS011;28754;47.700;7.924;2023-06-22T19:30:24;2.58;;;1.25;;
42614;SDS011;28754;47.700;7.924;2023-06-22T19:33:21;2.10;;;1.20;;
42614;SDS011;28754;47.700;7.924;2023-06-22T19:36:08;3.45;;;1.42;;
42614;SDS011;28754;47.700;7.924;2023-06-22T19:38:57;2.63;;;1.45;;
42614;SDS011;28754;47.700;7.924;2023-06-22T19:41:45;3.70;;;1.85;;
42614;SDS011;28754;47.700;7.924;2023-06-22T19:44:32;3.45;;;1.70;;
42614;SDS011;28754;47.700;7.924;2023-06-22T19:47:21;3.83;;;1.85;;
42614;SDS011;28754;47.700;7.924;2023-06-22T19:50:09;3.60;;;1.73;;
42614;SDS011;28754;47.700;7.924;2023-06-22T19:57:37;2.97;;;1.90;;
42614;SDS011;28754;47.700;7.924;2023-06-22T20:00:31;3.35;;;1.77;;
42614;SDS011;28754;47.700;7.924;2023-06-22T20:06:59;2.67;;;1.92;;
42614;SDS011;28754;47.700;7.924;2023-06-22T20:10:07;7.95;;;3.08;;
42614;SDS011;28754;47.700;7.924;2023-06-22T20:13:14;4.80;;;2.88;;